createdAt,value
2023-04-16T00:03:30.789Z,26.08
2023-04-16T00:06:30.665Z,21.65
2023-04-16T00:12:38.168Z,15.82
2023-04-16T00:15:44.720Z,18.77
2023-04-16T00:18:27.129Z,16.77
2023-04-16T00:21:43.665Z,17.17
2023-04-16T00:24:38.489Z,19.23
2023-04-16T00:27:24.162Z,20.02
2023-04-16T00:30:39.277Z,17.60
2023-04-16T00:33:36.770Z,16.80
2023-04-16T00:36:13.727Z,14.40
2023-04-16T00:38:58.208Z,15.40
2023-04-16T00:41:43.369Z,19.02
2023-04-16T00:44:48.669Z,21.23
2023-04-16T00:47:37.981Z,21.17
2023-04-16T00:50:24.533Z,19.17
2023-04-16T00:53:40.653Z,18.95
2023-04-16T00:56:32.555Z,23.58
2023-04-16T00:59:28.339Z,19.40
2023-04-16T01:02:17.425Z,21.05
2023-04-16T01:05:02.246Z,18.55
2023-04-16T01:07:40.899Z,22.02
2023-04-16T01:10:21.264Z,20.40
2023-04-16T01:13:02.385Z,20.10
2023-04-16T01:16:12.031Z,16.27
2023-04-16T01:18:48.919Z,14.07
2023-04-16T01:21:49.924Z,13.65
2023-04-16T01:24:25.637Z,11.43
2023-04-16T01:27:05.366Z,12.13
2023-04-16T01:29:42.140Z,10.55
2023-04-16T01:32:22.854Z,11.48
2023-04-16T01:35:11.839Z,11.07
2023-04-16T01:39:01.404Z,9.45
2023-04-16T01:42:46.668Z,9.18
2023-04-16T01:46:35.100Z,10.68
2023-04-16T01:50:19.185Z,9.38
2023-04-16T01:53:15.092Z,9.73
2023-04-16T01:56:18.903Z,10.40
2023-04-16T01:59:40.443Z,15.27
2023-04-16T02:16:13.682Z,12.95
2023-04-16T02:23:29.419Z,16.65
2023-04-16T02:27:49.161Z,13.40
2023-04-16T02:30:49.553Z,15.65
2023-04-16T02:45:34.720Z,15.32
2023-04-16T02:48:49.444Z,16.85
2023-04-16T02:51:33.551Z,16.23
2023-04-16T02:54:28.995Z,14.55
2023-04-16T02:57:34.835Z,16.55
2023-04-16T03:01:35.725Z,15.50
2023-04-16T03:08:35.375Z,18.40
2023-04-16T03:11:05.672Z,20.23
2023-04-16T03:13:34.224Z,19.95
2023-04-16T03:16:03.718Z,22.45
2023-04-16T03:22:33.580Z,16.65
2023-04-16T04:12:19.163Z,19.83
2023-04-16T04:14:53.931Z,20.75
2023-04-16T13:47:24.488Z,21.25
2023-04-16T13:50:30.825Z,19.85
2023-04-16T13:53:10.406Z,21.75
2023-04-16T13:55:39.300Z,23.10
2023-04-16T13:58:08.076Z,22.08
2023-04-16T14:00:36.316Z,23.55
2023-04-16T14:03:06.866Z,23.58
2023-04-16T14:05:35.156Z,24.25
2023-04-16T14:08:03.283Z,26.77
2023-04-16T14:10:32.328Z,25.33
2023-04-16T14:13:00.540Z,25.80
2023-04-16T14:15:29.940Z,25.77
2023-04-16T14:17:58.169Z,24.42
2023-04-16T14:20:27.672Z,25.80
2023-04-16T14:22:56.053Z,25.13
2023-04-16T14:25:24.964Z,26.27
2023-04-16T14:27:53.090Z,27.33
2023-04-16T14:30:21.248Z,26.63
2023-04-16T14:32:49.420Z,25.67
2023-04-16T14:35:17.920Z,25.70
2023-04-16T14:37:47.406Z,25.40
2023-04-16T14:40:15.850Z,25.02
2023-04-16T14:42:43.946Z,23.17
2023-04-16T14:45:12.148Z,22.95
2023-04-16T14:47:45.772Z,23.67
2023-04-16T14:50:14.731Z,22.80
2023-04-16T14:52:43.008Z,22.35
2023-04-16T14:55:12.783Z,22.00
2023-04-16T14:57:41.562Z,22.92
2023-04-16T15:00:11.650Z,21.52
2023-04-16T15:02:39.919Z,23.90
2023-04-16T15:05:10.406Z,21.08
2023-04-16T15:07:38.585Z,19.63
2023-04-16T15:10:08.238Z,20.90
2023-04-16T15:12:38.272Z,22.27
2023-04-16T15:15:07.811Z,20.70
2023-04-16T15:17:36.201Z,21.90
2023-04-16T15:20:08.094Z,21.08
2023-04-16T15:22:36.614Z,23.65
2023-04-16T15:25:05.206Z,21.00
2023-04-16T15:27:34.225Z,22.73
2023-04-16T15:30:04.100Z,21.40
2023-04-16T15:32:32.599Z,22.73
2023-04-16T15:35:03.504Z,22.58
2023-04-16T15:37:31.670Z,21.55
2023-04-16T15:39:59.803Z,22.25
2023-04-16T15:42:27.909Z,21.88
2023-04-16T15:44:56.315Z,22.10
2023-04-16T15:47:25.854Z,22.73
2023-04-16T15:49:54.030Z,23.38
2023-04-16T15:52:22.193Z,23.38
2023-04-16T15:54:50.714Z,22.98
2023-04-16T15:57:18.814Z,24.08
2023-04-16T16:00:03.148Z,23.73
2023-04-16T16:02:36.082Z,25.17
2023-04-16T16:05:04.774Z,23.67
2023-04-16T16:07:32.974Z,22.42
2023-04-16T16:10:01.566Z,23.90
2023-04-16T16:12:30.381Z,24.30
2023-04-16T16:14:59.059Z,24.95
2023-04-16T16:17:27.308Z,25.27
2023-04-16T16:19:57.625Z,24.90
2023-04-16T16:22:25.798Z,22.15
2023-04-16T16:24:55.975Z,23.90
2023-04-16T16:27:24.333Z,22.10
2023-04-16T16:29:52.488Z,21.70
2023-04-16T16:32:20.776Z,20.88
2023-04-16T16:34:48.928Z,20.20
2023-04-16T16:37:18.365Z,20.77
2023-04-16T16:39:46.453Z,20.35
2023-04-16T16:42:18.508Z,20.88
2023-04-16T16:44:48.735Z,20.30
2023-04-16T16:47:16.993Z,20.83
2023-04-16T16:49:45.403Z,21.50
2023-04-16T16:52:13.542Z,22.63
2023-04-16T16:54:43.207Z,24.25
2023-04-16T16:57:11.341Z,24.25
2023-04-16T16:59:39.746Z,24.50
2023-04-16T17:02:09.091Z,24.48
2023-04-16T17:04:37.457Z,29.45
2023-04-16T17:07:05.662Z,24.23
2023-04-16T17:09:33.782Z,25.58
2023-04-16T17:12:03.260Z,27.48
2023-04-16T17:14:31.607Z,24.55
2023-04-16T17:16:59.812Z,25.88
2023-04-16T17:19:28.444Z,26.02
2023-04-16T17:21:57.086Z,24.05
2023-04-16T17:24:25.324Z,24.95
2023-04-16T17:26:56.327Z,26.25
2023-04-16T17:29:26.631Z,25.83
2023-04-16T17:31:54.790Z,27.27
2023-04-16T17:34:23.343Z,23.70
2023-04-16T17:36:51.572Z,24.50
2023-04-16T17:39:20.709Z,22.67
2023-04-16T17:41:54.051Z,26.08
2023-04-16T17:44:22.984Z,24.98
2023-04-16T17:46:52.861Z,24.75
2023-04-16T17:49:21.157Z,25.67
2023-04-16T17:51:49.395Z,25.17
2023-04-16T17:54:17.584Z,25.00
2023-04-16T17:56:46.437Z,25.75
2023-04-16T17:59:14.752Z,24.95
2023-04-16T18:01:43.052Z,26.05
2023-04-16T18:04:34.770Z,26.42
2023-04-16T18:07:03.058Z,27.90
2023-04-16T18:09:33.824Z,28.77
2023-04-16T18:12:02.875Z,30.52
2023-04-16T18:14:31.117Z,29.08
2023-04-16T18:16:59.808Z,29.67
2023-04-16T18:19:28.259Z,28.80
2023-04-16T18:21:58.577Z,27.48
2023-04-16T18:24:27.198Z,27.05
2023-04-16T18:26:56.788Z,30.85
2023-04-16T18:29:25.516Z,28.83
2023-04-16T18:31:55.744Z,28.30
2023-04-16T18:34:25.479Z,28.23
2023-04-16T18:36:53.728Z,27.13
2023-04-16T18:39:23.738Z,27.52
2023-04-16T18:41:52.046Z,27.83
2023-04-16T18:44:20.769Z,30.23
2023-04-16T18:46:49.421Z,29.38
2023-04-16T18:49:17.800Z,28.83
2023-04-16T18:51:46.069Z,29.15
2023-04-16T18:54:14.271Z,28.23
2023-04-16T18:56:43.943Z,28.23
2023-04-16T18:59:12.356Z,26.77
2023-04-16T19:01:41.284Z,26.88
2023-04-16T19:04:09.994Z,28.95
2023-04-16T19:06:38.281Z,28.33
2023-04-16T19:09:06.606Z,28.42
2023-04-16T19:11:35.060Z,27.98
2023-04-16T19:14:05.794Z,30.10
2023-04-16T19:16:34.437Z,28.15
2023-04-16T19:19:02.664Z,28.80
2023-04-16T19:21:31.236Z,27.25
2023-04-16T19:23:59.862Z,29.45
2023-04-16T19:26:28.833Z,29.60
2023-04-16T19:28:56.991Z,28.05
2023-04-16T19:31:27.036Z,31.10
2023-04-16T19:33:55.193Z,28.90
2023-04-16T19:36:23.366Z,28.80
2023-04-16T19:38:51.602Z,27.20
2023-04-16T19:41:19.805Z,29.45
2023-04-16T19:43:48.187Z,29.08
2023-04-16T19:46:16.744Z,29.45
2023-04-16T19:48:46.259Z,27.20
2023-04-16T19:51:14.456Z,29.20
2023-04-16T19:53:42.678Z,27.98
2023-04-16T19:56:10.900Z,29.95
2023-04-16T19:58:39.193Z,32.22
2023-04-16T20:01:10.970Z,30.75
2023-04-16T20:03:39.586Z,29.48
2023-04-16T20:06:09.581Z,30.95
2023-04-16T20:08:38.455Z,30.60
2023-04-16T20:11:08.507Z,30.40
2023-04-16T20:13:37.538Z,31.05
2023-04-16T20:16:09.272Z,29.35
2023-04-16T20:18:41.175Z,30.60
2023-04-16T20:21:11.268Z,30.25
2023-04-16T20:23:39.421Z,30.33
2023-04-16T20:26:07.571Z,30.25
2023-04-16T20:28:36.110Z,34.13
2023-04-16T20:31:04.267Z,32.72
2023-04-16T20:33:32.448Z,28.92
2023-04-16T20:36:00.528Z,31.25
2023-04-16T20:38:32.293Z,33.83
2023-04-16T20:41:10.252Z,30.20
2023-04-16T20:43:40.588Z,30.52
2023-04-16T20:46:09.029Z,30.08
2023-04-16T20:48:38.470Z,30.27
2023-04-16T20:51:09.534Z,30.92
2023-04-16T20:53:39.163Z,31.90
2023-04-16T20:56:09.133Z,28.85
2023-04-16T20:58:37.290Z,30.58
2023-04-16T21:01:26.733Z,29.65
2023-04-16T21:03:55.096Z,31.15
2023-04-16T21:06:23.435Z,30.85
2023-04-16T21:08:53.067Z,28.98
2023-04-16T21:11:21.369Z,28.15
2023-04-16T21:13:49.609Z,30.60
2023-04-16T21:16:18.942Z,31.52
2023-04-16T21:18:47.143Z,32.92
2023-04-16T21:21:16.109Z,29.08
2023-04-16T21:23:44.215Z,31.33
2023-04-16T21:26:14.049Z,31.33
2023-04-16T21:28:42.194Z,34.05
2023-04-16T21:31:10.563Z,29.70
2023-04-16T21:33:39.276Z,30.58
2023-04-16T21:36:08.259Z,33.90
2023-04-16T21:38:36.511Z,36.38
2023-04-16T21:41:05.281Z,32.08
2023-04-16T21:43:34.854Z,34.05
2023-04-16T21:46:03.127Z,32.38
2023-04-16T21:48:31.528Z,32.08
2023-04-16T21:51:06.307Z,33.10
2023-04-16T21:53:34.682Z,32.97
2023-04-16T21:56:03.568Z,34.50
2023-04-16T21:58:31.784Z,33.55
2023-04-16T22:01:01.759Z,31.38
2023-04-16T22:03:31.081Z,30.35
2023-04-16T22:06:01.485Z,29.90
2023-04-16T22:08:30.681Z,29.00
2023-04-16T22:11:00.216Z,36.08
2023-04-16T22:13:29.885Z,31.95
2023-04-16T22:15:58.234Z,34.60
2023-04-16T22:18:28.985Z,33.33
2023-04-16T22:20:57.666Z,34.20
2023-04-16T22:23:26.785Z,34.78
2023-04-16T22:25:56.337Z,33.42
2023-04-16T22:28:24.855Z,30.92
2023-04-16T22:30:53.695Z,31.75
2023-04-16T22:33:21.913Z,31.42
2023-04-16T22:35:51.480Z,32.50
2023-04-16T22:38:20.045Z,36.10
2023-04-16T22:40:49.189Z,30.15
2023-04-16T22:43:17.949Z,35.83
2023-04-16T22:45:47.193Z,32.30
2023-04-16T22:48:15.476Z,34.45
2023-04-16T22:50:48.316Z,37.25
2023-04-16T22:53:18.104Z,32.63
2023-04-16T22:55:46.498Z,33.47
2023-04-16T22:58:14.856Z,34.83
2023-04-16T23:00:43.439Z,32.00
2023-04-16T23:03:12.230Z,33.28
2023-04-16T23:05:40.594Z,31.83
2023-04-16T23:08:09.124Z,33.08
2023-04-16T23:10:38.999Z,34.88
2023-04-16T23:13:07.274Z,35.90
2023-04-16T23:15:36.113Z,35.85
2023-04-16T23:18:04.466Z,37.15
2023-04-16T23:20:32.853Z,35.55
2023-04-16T23:23:01.137Z,32.55
2023-04-16T23:25:29.366Z,31.55
2023-04-16T23:27:58.965Z,39.33
2023-04-16T23:30:28.037Z,40.67
2023-04-16T23:32:56.296Z,37.67
2023-04-16T23:35:24.479Z,37.65
2023-04-16T23:37:52.737Z,38.08
2023-04-16T23:40:20.903Z,32.80
2023-04-16T23:42:49.191Z,36.58
2023-04-16T23:45:18.822Z,38.03
2023-04-16T23:47:47.601Z,37.78
2023-04-16T23:50:15.951Z,35.95
2023-04-16T23:52:44.402Z,35.00
2023-04-16T23:55:13.087Z,44.92
2023-04-16T23:57:41.250Z,36.40
